createdAt,value
2019-03-30T00:00:39.739Z,99094.00
2019-03-30T00:05:47.206Z,99072.00
2019-03-30T00:10:54.298Z,99075.00
2019-03-30T00:16:00.372Z,99070.00
2019-03-30T00:21:07.223Z,99079.00
2019-03-30T00:26:16.446Z,99074.00
2019-03-30T00:31:23.300Z,99073.00
2019-03-30T00:36:29.790Z,99077.00
2019-03-30T00:41:36.771Z,99065.00
2019-03-30T00:46:44.384Z,99067.00
2019-03-30T00:51:52.322Z,99074.00
2019-03-30T00:56:59.500Z,99068.00
2019-03-30T01:02:05.486Z,99066.00
2019-03-30T01:07:12.360Z,99056.00
2019-03-30T01:12:19.251Z,99055.00
2019-03-30T01:17:26.532Z,99041.00
2019-03-30T01:22:32.939Z,99029.00
2019-03-30T01:27:52.694Z,99028.00
2019-03-30T01:32:59.472Z,99008.00
2019-03-30T01:38:07.450Z,99012.00
2019-03-30T01:43:14.432Z,99003.00
2019-03-30T01:48:20.921Z,99004.00
2019-03-30T01:53:28.039Z,99007.00
2019-03-30T01:58:35.841Z,99004.00
2019-03-30T02:03:42.523Z,99001.00
2019-03-30T02:08:49.621Z,99000.00
2019-03-30T02:13:56.106Z,98999.00
2019-03-30T02:19:04.442Z,99000.00
2019-03-30T02:24:11.374Z,99004.00
2019-03-30T02:29:17.411Z,98995.00
2019-03-30T02:34:25.709Z,98993.00
2019-03-30T02:39:31.809Z,98994.00
2019-03-30T02:44:38.698Z,98993.00
2019-03-30T02:49:45.804Z,98991.00
2019-03-30T02:54:53.754Z,98990.00
2019-03-30T03:00:00.860Z,98985.00
2019-03-30T03:05:09.943Z,98985.00
2019-03-30T03:10:16.844Z,98980.00
2019-03-30T03:15:23.968Z,98983.00
2019-03-30T03:20:29.914Z,98977.00
2019-03-30T03:25:35.882Z,98975.00
2019-03-30T03:30:42.988Z,98972.00
2019-03-30T03:35:49.487Z,98972.00
2019-03-30T03:40:57.700Z,98966.00
2019-03-30T03:46:05.746Z,98969.00
2019-03-30T03:51:25.839Z,98942.00
2019-03-30T03:56:45.847Z,98943.00
2019-03-30T04:02:14.960Z,98948.00
2019-03-30T04:07:26.331Z,98950.00
2019-03-30T04:12:36.723Z,98942.00
2019-03-30T04:17:43.376Z,98941.00
2019-03-30T04:22:50.409Z,98931.00
2019-03-30T04:27:58.395Z,98941.00
2019-03-30T04:33:04.397Z,98927.00
2019-03-30T04:38:14.295Z,98933.00
2019-03-30T04:43:20.685Z,98928.00
2019-03-30T04:48:29.535Z,98928.00
2019-03-30T04:53:36.239Z,98931.00
2019-03-30T04:58:42.118Z,98918.00
2019-03-30T05:03:49.013Z,98928.00
2019-03-30T05:08:56.875Z,98929.00
2019-03-30T05:14:05.155Z,98926.00
2019-03-30T05:24:38.045Z,98925.00
2019-03-30T05:29:45.268Z,98922.00
2019-03-30T05:34:53.983Z,98927.00
2019-03-30T05:40:00.778Z,98928.00
2019-03-30T05:45:28.573Z,98927.00
2019-03-30T05:50:36.005Z,98922.00
2019-03-30T05:55:42.800Z,98921.00
2019-03-30T06:00:49.588Z,98934.00
2019-03-30T06:05:57.633Z,98925.00
2019-03-30T06:11:04.093Z,98930.00
2019-03-30T06:16:09.957Z,98926.00
2019-03-30T06:21:16.768Z,98931.00
2019-03-30T06:26:23.946Z,98927.00
2019-03-30T06:31:29.915Z,98920.00
2019-03-30T06:36:36.726Z,98917.00
2019-03-30T06:41:55.392Z,98907.00
2019-03-30T06:47:01.765Z,98901.00
2019-03-30T06:52:07.782Z,98897.00
2019-03-30T06:57:15.666Z,98899.00
2019-03-30T07:02:21.690Z,98902.00
2019-03-30T07:07:29.140Z,98897.00
2019-03-30T07:12:58.861Z,98890.00
2019-03-30T07:18:05.904Z,98889.00
2019-03-30T07:23:13.108Z,98886.00
2019-03-30T07:28:19.584Z,98897.00
2019-03-30T07:33:26.565Z,98898.00
2019-03-30T07:38:32.475Z,98902.00
2019-03-30T07:43:39.267Z,98887.00
2019-03-30T07:48:45.105Z,98891.00
2019-03-30T07:53:51.875Z,98891.00
2019-03-30T07:58:58.514Z,98900.00
2019-03-30T08:04:28.636Z,98894.00
2019-03-30T08:09:37.230Z,98901.00
2019-03-30T08:14:45.333Z,98892.00
2019-03-30T08:19:52.283Z,98901.00
2019-03-30T08:24:58.221Z,98904.00
2019-03-30T08:30:06.169Z,98895.00
2019-03-30T08:35:12.374Z,98901.00
2019-03-30T08:40:18.836Z,98894.00
2019-03-30T08:45:26.936Z,98885.00
2019-03-30T08:50:32.924Z,98892.00
2019-03-30T08:56:27.765Z,98880.00
2019-03-30T09:01:31.960Z,98880.00
2019-03-30T09:06:37.932Z,98885.00
2019-03-30T09:11:43.926Z,98868.00
2019-03-30T09:16:50.855Z,98869.00
2019-03-30T09:21:57.773Z,98864.00
2019-03-30T09:27:03.711Z,98862.00
2019-03-30T09:32:14.564Z,98853.00
2019-03-30T09:37:17.708Z,98851.00
2019-03-30T09:42:24.463Z,98860.00
2019-03-30T09:47:30.390Z,98843.00
2019-03-30T09:52:36.367Z,98847.00
2019-03-30T09:57:42.758Z,98850.00
2019-03-30T10:02:48.619Z,98851.00
2019-03-30T10:07:55.535Z,98836.00
2019-03-30T10:13:01.423Z,98827.00
2019-03-30T10:18:08.327Z,98820.00
2019-03-30T10:23:14.774Z,98822.00
2019-03-30T10:28:21.316Z,98811.00
2019-03-30T10:33:29.201Z,98809.00
2019-03-30T10:38:35.159Z,98817.00
2019-03-30T10:43:41.941Z,98805.00
2019-03-30T10:48:48.846Z,98808.00
2019-03-30T10:53:55.641Z,98807.00
2019-03-30T10:59:02.049Z,98797.00
2019-03-30T11:04:07.949Z,98811.00
2019-03-30T11:09:13.850Z,98807.00
2019-03-30T11:14:20.460Z,98786.00
2019-03-30T11:19:26.379Z,98794.00
2019-03-30T11:24:32.311Z,98774.00
2019-03-30T11:29:40.333Z,98770.00
2019-03-30T11:34:47.420Z,98765.00
2019-03-30T11:39:54.441Z,98766.00
2019-03-30T11:45:01.366Z,98770.00
2019-03-30T11:50:08.662Z,98761.00
2019-03-30T11:55:22.088Z,98746.00
2019-03-30T12:00:23.485Z,98739.00
2019-03-30T12:05:30.028Z,98738.00
2019-03-30T12:10:36.026Z,98722.00
2019-03-30T12:15:42.934Z,98712.00
2019-03-30T12:20:50.035Z,98706.00
2019-03-30T12:25:56.066Z,98700.00
2019-03-30T12:31:02.850Z,98699.00
2019-03-30T12:36:08.815Z,98692.00
2019-03-30T12:41:15.224Z,98670.00
2019-03-30T12:46:21.371Z,98687.00
2019-03-30T12:51:27.336Z,98665.00
2019-03-30T12:56:33.363Z,98657.00
2019-03-30T13:01:39.440Z,98660.00
2019-03-30T13:06:45.997Z,98649.00
2019-03-30T13:11:52.901Z,98644.00
2019-03-30T13:16:58.949Z,98640.00
2019-03-30T13:22:05.016Z,98631.00
2019-03-30T13:27:13.127Z,98637.00
2019-03-30T13:32:20.055Z,98617.00
2019-03-30T13:37:26.692Z,98629.00
2019-03-30T13:42:32.709Z,98616.00
2019-03-30T13:47:38.704Z,98609.00
2019-03-30T13:52:45.699Z,98608.00
2019-03-30T13:57:52.452Z,98594.00
2019-03-30T14:02:58.417Z,98596.00
2019-03-30T14:08:05.234Z,98586.00
2019-03-30T14:13:13.745Z,98585.00
2019-03-30T14:18:20.509Z,98586.00
2019-03-30T14:23:28.361Z,98578.00
2019-03-30T14:28:34.339Z,98569.00
2019-03-30T14:33:40.773Z,98567.00
2019-03-30T14:38:47.310Z,98562.00
2019-03-30T14:43:54.103Z,98557.00
2019-03-30T14:49:00.895Z,98551.00
2019-03-30T14:54:07.888Z,98544.00
2019-03-30T14:59:14.743Z,98538.00
2019-03-30T15:04:22.415Z,98528.00
2019-03-30T15:09:31.955Z,98530.00
2019-03-30T15:14:38.043Z,98522.00
2019-03-30T15:19:45.030Z,98524.00
2019-03-30T15:24:52.128Z,98517.00
2019-03-30T15:30:00.351Z,98513.00
2019-03-30T15:35:08.197Z,98522.00
2019-03-30T15:40:15.155Z,98514.00
2019-03-30T15:45:21.134Z,98505.00
2019-03-30T15:50:27.139Z,98499.00
2019-03-30T15:55:33.128Z,98494.00
2019-03-30T16:00:39.939Z,98486.00
2019-03-30T16:05:46.748Z,98488.00
2019-03-30T16:10:54.605Z,98489.00
2019-03-30T16:16:03.328Z,98484.00
2019-03-30T16:21:10.522Z,98485.00
2019-03-30T16:26:16.883Z,98486.00
2019-03-30T16:31:24.187Z,98485.00
2019-03-30T16:36:32.584Z,98470.00
2019-03-30T16:41:42.695Z,98475.00
2019-03-30T16:46:50.312Z,98477.00
2019-03-30T16:51:58.208Z,98476.00
2019-03-30T16:57:05.112Z,98477.00
2019-03-30T17:02:11.901Z,98466.00
2019-03-30T17:07:18.994Z,98471.00
2019-03-30T17:12:26.091Z,98477.00
2019-03-30T17:17:33.321Z,98467.00
2019-03-30T17:22:39.877Z,98468.00
2019-03-30T17:27:57.349Z,98470.00
2019-03-30T17:32:56.240Z,98464.00
2019-03-30T17:38:02.309Z,98475.00
2019-03-30T17:43:09.001Z,98477.00
2019-03-30T17:48:18.148Z,98477.00
2019-03-30T17:53:27.286Z,98475.00
2019-03-30T17:58:35.085Z,98480.00
2019-03-30T18:03:42.617Z,98484.00
2019-03-30T18:08:49.369Z,98479.00
2019-03-30T18:13:56.939Z,98482.00
2019-03-30T18:19:04.915Z,98478.00
2019-03-30T18:24:11.095Z,98478.00
2019-03-30T18:29:20.075Z,98481.00
2019-03-30T18:34:29.206Z,98479.00
2019-03-30T18:39:36.578Z,98483.00
2019-03-30T18:44:44.294Z,98477.00
2019-03-30T18:49:55.697Z,98474.00
2019-03-30T18:55:02.726Z,98471.00
2019-03-30T19:00:16.738Z,98479.00
2019-03-30T19:05:25.686Z,98477.00
2019-03-30T19:10:34.640Z,98474.00
2019-03-30T19:15:43.902Z,98477.00
2019-03-30T19:20:50.847Z,98472.00
2019-03-30T19:25:59.574Z,98474.00
2019-03-30T19:31:08.087Z,98483.00
2019-03-30T19:36:15.743Z,98474.00
2019-03-30T19:41:23.151Z,98479.00
2019-03-30T19:46:30.773Z,98473.00
2019-03-30T19:51:41.040Z,98485.00
2019-03-30T19:56:47.017Z,98483.00
2019-03-30T20:01:56.703Z,98476.00
2019-03-30T20:07:05.831Z,98480.00
2019-03-30T20:12:14.527Z,98485.00
2019-03-30T20:17:23.305Z,98482.00
2019-03-30T20:22:29.375Z,98481.00
2019-03-30T20:27:40.871Z,98481.00
2019-03-30T20:32:47.667Z,98483.00
2019-03-30T20:37:57.271Z,98473.00
2019-03-30T20:43:23.564Z,98465.00
2019-03-30T20:48:32.883Z,98476.00
2019-03-30T20:53:39.505Z,98465.00
2019-03-30T20:58:48.045Z,98470.00
2019-03-30T21:03:56.261Z,98453.00
2019-03-30T21:09:07.052Z,98458.00
2019-03-30T21:14:14.474Z,98454.00
2019-03-30T21:19:20.634Z,98449.00
2019-03-30T21:24:27.612Z,98457.00
2019-03-30T21:29:35.962Z,98442.00
2019-03-30T21:34:44.079Z,98455.00
2019-03-30T21:39:53.519Z,98458.00
2019-03-30T21:45:00.148Z,98456.00
2019-03-30T21:50:09.566Z,98455.00
2019-03-30T21:55:16.217Z,98459.00
2019-03-30T22:00:40.625Z,98443.00
2019-03-30T22:05:49.596Z,98448.00
2019-03-30T22:10:56.478Z,98447.00
2019-03-30T22:16:03.285Z,98442.00
2019-03-30T22:21:10.170Z,98452.00
2019-03-30T22:26:16.145Z,98437.00
2019-03-30T22:31:22.219Z,98440.00
2019-03-30T22:36:29.212Z,98430.00
2019-03-30T22:41:36.314Z,98431.00
2019-03-30T23:09:21.240Z,98407.00
2019-03-30T23:14:27.213Z,98403.00
2019-03-30T23:19:33.282Z,98395.00
2019-03-30T23:24:42.181Z,98397.00
2019-03-30T23:29:51.686Z,98391.00
2019-03-30T23:34:59.773Z,98392.00
2019-03-30T23:40:08.631Z,98388.00
2019-03-30T23:45:15.634Z,98445.00
2019-03-30T23:50:21.711Z,98435.00
2019-03-30T23:55:29.312Z,98426.00
